Metar Aviation Weather Data LFTW

22°C Temp
14°C Dewpoint
% Humidity
Temperature
3 KM/H
2 MPH
2 KTS
10°
Due North

Wind Speed
Clear
Conditions
Pressure 1020.92 (hPa) - 30.15 (in)
Visibility 6.2 (mi) - 10.0 (km)

Current Conditions
LFTW
Metar :LFTW 152030Z AUTO 01002KT CAVOK 22/14 Q1021
Sun 15th September 22:30 pm

  Metar Aviation API Data Provided by https://www.checkwx.com/ PHP scripts by weather34.com ©2019